Ana Sayfa
METAR-TAF:

METAR-TAF

Havaalanları :

Medicine Lodge Airport

Medicine Lodge, Kansas, Amerika Birleşik Devletleri

Enlem: 37-17-02N, Boylam: 098-33-10W, yükseklik: 469 m

Güncel hava durumu gözlemi

Rapor saat 15:56 UTC de 12 dakika önce yapıldı.
Rüzgar güney/güneybatıdan 11 kt
Sıcaklık 29°C
Nem 66%
Basınç 1011 hPa

METAR: KP28 251556Z AUTO 20011KT 29/22 A2986 RMK AO1 SLP090 T02890217 $

Saat: 11:08 (16:08 UTC)


TAF: eksik

4.000'den fazla havaalanı için hava durumu gözlemleri ve tahminleri (METAR ve TAF raporları).

Kullanılabilir istasyonlar harita üzerinde sarı ve kırmızı noktalarla gösterilir.

İstasyonun adını görmek için fareyi noktanın üzerinde gezdirin.

Sonrasında hava gözlem ve tahminlerini görmek için tıklayın.

Haritayı değiştirmek için: yaklaştırmak için siyah artı işaretli yeşil düğmeye ve uzaklaştırmak için de eksi işaretli düğmeye hızla tıklayın; bitişik haritalar için yeşil okları kullanın.


METAR-TAF: